Time,TemperatureF,DewpointF,PressureIn,WindDirection,WindDirectionDegrees,WindSpeedMPH,WindSpeedGustMPH,Humidity,HourlyPrecipIn,Conditions,Clouds,dailyrainin,SoftwareType,DateUTC
2013-07-06 00:00:00,66.5,54.0,29.52,South,173,0.0,1.0,65,0.00,,,0.00,weatherlink.com 1.10,2013-07-06 06:00:00,
2013-07-06 00:15:00,66.3,54.0,29.52,ENE,63,0.0,1.0,65,0.00,,,0.00,weatherlink.com 1.10,2013-07-06 06:15:00,
2013-07-06 00:30:00,65.8,54.0,29.52,ENE,63,0.0,0.0,65,0.00,,,0.00,weatherlink.com 1.10,2013-07-06 06:30:00,
2013-07-06 00:45:00,65.7,54.0,29.52,ENE,70,0.0,0.0,65,0.00,,,0.00,weatherlink.com 1.10,2013-07-06 06:45:00,
2013-07-06 01:00:00,65.3,54.0,29.52,ENE,63,0.0,0.0,66,0.00,,,0.00,weatherlink.com 1.10,2013-07-06 07:00:00,
2013-07-06 01:15:00,64.3,53.0,29.51,ENE,63,0.0,1.0,68,0.00,,,0.00,weatherlink.com 1.10,2013-07-06 07:15:00,
2013-07-06 01:30:00,64.7,53.0,29.51,SSW,203,0.0,2.0,66,0.00,,,0.00,weatherlink.com 1.10,2013-07-06 07:30:00,
2013-07-06 01:45:00,64.9,53.0,29.51,SSW,203,0.0,0.0,66,0.00,,,0.00,weatherlink.com 1.10,2013-07-06 07:45:00,
2013-07-06 02:00:00,66.6,53.0,29.52,SSW,211,0.0,2.0,62,0.00,,,0.00,weatherlink.com 1.10,2013-07-06 08:00:00,
2013-07-06 02:15:00,66.9,53.0,29.52,SSW,211,0.0,1.0,61,0.00,,,0.00,weatherlink.com 1.10,2013-07-06 08:15:00,
2013-07-06 02:30:00,70.7,50.0,29.51,SW,218,2.0,7.0,49,0.00,,,0.00,weatherlink.com 1.10,2013-07-06 08:30:00,
2013-07-06 02:45:00,73.1,51.0,29.51,NNE,18,0.0,6.0,46,0.00,,,0.00,weatherlink.com 1.10,2013-07-06 08:45:00,
2013-07-06 03:00:00,70.7,52.0,29.51,ENE,77,0.0,3.0,52,0.00,,,0.00,weatherlink.com 1.10,2013-07-06 09:00:00,
2013-07-06 03:15:00,70.5,52.0,29.54,WNW,283,2.0,5.0,52,0.00,,,0.00,weatherlink.com 1.10,2013-07-06 09:15:00,
2013-07-06 03:30:00,71.5,50.0,29.55,North,352,3.0,5.0,46,0.00,,,0.00,weatherlink.com 1.10,2013-07-06 09:30:00,
2013-07-06 03:45:00,73.9,49.0,29.54,North,356,1.0,8.0,42,0.00,,,0.00,weatherlink.com 1.10,2013-07-06 09:45:00,
2013-07-06 04:00:00,74.7,49.0,29.55,WSW,249,1.0,6.0,40,0.00,,,0.00,weatherlink.com 1.10,2013-07-06 10:00:00,
2013-07-06 04:16:00,74.6,49.0,29.56,WNW,288,5.0,10.0,40,0.00,,,0.00,weatherlink.com 1.10,2013-07-06 10:16:00,
2013-07-06 04:31:00,74.5,49.0,29.57,NW,319,0.0,10.0,41,0.00,,,0.00,weatherlink.com 1.10,2013-07-06 10:31:00,
2013-07-06 04:46:00,73.3,49.0,29.56,South,186,2.0,6.0,42,0.00,,,0.00,weatherlink.com 1.10,2013-07-06 10:46:00,
2013-07-06 05:01:00,73.1,49.0,29.57,North,352,0.0,5.0,42,0.00,,,0.00,weatherlink.com 1.10,2013-07-06 11:01:00,
2013-07-06 05:16:00,71.2,49.0,29.56,NE,34,0.0,0.0,45,0.00,,,0.00,weatherlink.com 1.10,2013-07-06 11:16:00,
2013-07-06 05:31:00,68.5,48.0,29.55,NE,34,0.0,0.0,49,0.00,,,0.00,weatherlink.com 1.10,2013-07-06 11:31:00,
2013-07-06 05:46:00,68.4,48.0,29.55,SW,236,0.0,4.0,49,0.00,,,0.00,weatherlink.com 1.10,2013-07-06 11:46:00,
2013-07-06 06:01:00,68.4,48.0,29.55,SW,233,0.0,1.0,49,0.00,,,0.00,weatherlink.com 1.10,2013-07-06 12:01:00,
2013-07-06 06:16:00,68.2,48.0,29.55,SW,217,0.0,1.0,49,0.00,,,0.00,weatherlink.com 1.10,2013-07-06 12:16:00,
2013-07-06 06:31:00,69.5,48.0,29.55,SW,229,0.0,3.0,47,0.00,,,0.00,weatherlink.com 1.10,2013-07-06 12:31:00,
2013-07-06 06:46:00,70.3,50.0,29.55,WSW,240,0.0,3.0,48,0.00,,,0.00,weatherlink.com 1.10,2013-07-06 12:46:00,
2013-07-06 07:01:00,71.0,50.0,29.55,SW,236,1.0,2.0,48,0.00,,,0.00,weatherlink.com 1.10,2013-07-06 13:01:00,
2013-07-06 07:16:00,72.6,51.0,29.54,WSW,245,2.0,2.0,46,0.00,,,0.00,weatherlink.com 1.10,2013-07-06 13:16:00,
2013-07-06 07:31:00,74.3,52.0,29.54,SW,232,0.0,3.0,45,0.00,,,0.00,weatherlink.com 1.10,2013-07-06 13:31:00,
2013-07-06 07:46:00,76.2,51.0,29.55,SSW,201,2.0,3.0,41,0.00,,,0.00,weatherlink.com 1.10,2013-07-06 13:46:00,
2013-07-06 08:01:00,78.6,53.0,29.55,ENE,74,3.0,3.0,41,0.00,,,0.00,weatherlink.com 1.10,2013-07-06 14:01:00,
2013-07-06 08:16:00,79.3,55.0,29.55,East,91,0.0,1.0,44,0.00,,,0.00,weatherlink.com 1.10,2013-07-06 14:16:00,
2013-07-06 08:31:00,81.3,48.0,29.55,East,82,0.0,3.0,31,0.00,,,0.00,weatherlink.com 1.10,2013-07-06 14:31:00,
2013-07-06 08:46:00,81.1,55.0,29.55,ESE,117,5.0,5.0,40,0.00,,,0.00,weatherlink.com 1.10,2013-07-06 14:46:00,
2013-07-06 09:01:00,82.3,51.0,29.54,WNW,287,2.0,6.0,34,0.00,,,0.00,weatherlink.com 1.10,2013-07-06 15:01:00,
2013-07-06 09:16:00,82.1,49.0,29.55,SE,136,3.0,5.0,31,0.00,,,0.00,weatherlink.com 1.10,2013-07-06 15:16:00,
2013-07-06 09:31:00,84.5,49.0,29.55,NNW,332,4.0,7.0,29,0.00,,,0.00,weatherlink.com 1.10,2013-07-06 15:31:00,
2013-07-06 09:46:00,84.8,48.0,29.55,ENE,77,0.0,5.0,28,0.00,,,0.00,weatherlink.com 1.10,2013-07-06 15:46:00,
2013-07-06 10:01:00,85.1,48.0,29.55,NNE,20,0.0,4.0,28,0.00,,,0.00,weatherlink.com 1.10,2013-07-06 16:01:00,
2013-07-06 10:16:00,86.3,50.0,29.55,West,267,3.0,4.0,28,0.00,,,0.00,weatherlink.com 1.10,2013-07-06 16:16:00,
2013-07-06 10:31:00,87.5,47.0,29.55,North,349,5.0,8.0,24,0.00,,,0.00,weatherlink.com 1.10,2013-07-06 16:31:00,
2013-07-06 10:46:00,86.1,47.0,29.55,North,1,1.0,7.0,26,0.00,,,0.00,weatherlink.com 1.10,2013-07-06 16:46:00,
2013-07-06 11:01:00,86.9,48.0,29.55,WNW,287,1.0,6.0,26,0.00,,,0.00,weatherlink.com 1.10,2013-07-06 17:01:00,
2013-07-06 12:01:00,87.7,47.0,29.54,NW,326,3.0,9.0,24,0.00,,,0.00,weatherlink.com 1.10,2013-07-06 18:01:00,
2013-07-06 12:16:00,86.8,49.0,29.55,SW,232,2.0,11.0,27,0.00,,,0.00,weatherlink.com 1.10,2013-07-06 18:16:00,
2013-07-06 12:46:00,86.8,48.0,29.55,NE,53,4.0,8.0,26,0.00,,,0.00,weatherlink.com 1.10,2013-07-06 18:46:00,
2013-07-06 13:01:00,87.6,48.0,29.54,NE,49,3.0,7.0,25,0.00,,,0.00,weatherlink.com 1.10,2013-07-06 19:01:00,
2013-07-06 13:47:00,82.9,48.0,29.57,SSW,205,8.0,17.0,29,0.00,,,0.00,weatherlink.com 1.10,2013-07-06 19:47:00,
2013-07-06 14:02:00,76.4,52.0,29.60,East,94,1.0,11.0,43,0.01,,,0.01,weatherlink.com 1.10,2013-07-06 20:02:00,
2013-07-06 14:47:00,74.4,59.0,29.57,NNE,29,2.0,3.0,58,0.02,,,0.02,weatherlink.com 1.10,2013-07-06 20:47:00,
2013-07-06 15:17:00,79.7,55.0,29.56,ENE,75,2.0,4.0,42,0.00,,,0.02,weatherlink.com 1.10,2013-07-06 21:17:00,
2013-07-06 16:32:00,67.9,62.0,29.57,WSW,253,0.0,1.0,80,0.11,,,0.13,weatherlink.com 1.10,2013-07-06 22:32:00,
2013-07-06 16:47:00,68.0,64.0,29.56,NNE,16,0.0,3.0,87,0.12,,,0.14,weatherlink.com 1.10,2013-07-06 22:47:00,
2013-07-06 17:02:00,69.6,64.0,29.56,SSW,203,1.0,2.0,83,0.12,,,0.14,weatherlink.com 1.10,2013-07-06 23:02:00,
2013-07-06 17:32:00,72.2,62.0,29.55,WSW,237,0.0,0.0,70,0.01,,,0.14,weatherlink.com 1.10,2013-07-06 23:32:00,
2013-07-06 18:02:00,76.2,60.0,29.55,WSW,238,1.0,3.0,57,0.00,,,0.14,weatherlink.com 1.10,2013-07-07 00:02:00,
2013-07-06 18:17:00,78.6,57.0,29.55,SW,219,1.0,4.0,48,0.00,,,0.14,weatherlink.com 1.10,2013-07-07 00:17:00,
2013-07-06 18:32:00,80.5,55.0,29.55,WSW,243,1.0,8.0,41,0.00,,,0.14,weatherlink.com 1.10,2013-07-07 00:32:00,
2013-07-06 19:02:00,79.7,52.0,29.55,ESE,109,1.0,6.0,38,0.00,,,0.14,weatherlink.com 1.10,2013-07-07 01:02:00,
2013-07-06 19:32:00,80.1,52.0,29.56,SW,224,0.0,3.0,38,0.00,,,0.14,weatherlink.com 1.10,2013-07-07 01:32:00,
2013-07-06 20:47:00,73.7,53.0,29.59,SSE,154,0.0,1.0,48,0.00,,,0.14,weatherlink.com 1.10,2013-07-07 02:47:00,
2013-07-06 21:17:00,71.3,52.0,29.61,ESE,122,0.0,2.0,51,0.00,,,0.14,weatherlink.com 1.10,2013-07-07 03:17:00,
2013-07-06 21:32:00,71.0,51.0,29.61,SW,228,0.0,2.0,50,0.00,,,0.14,weatherlink.com 1.10,2013-07-07 03:32:00,
2013-07-06 21:47:00,70.8,51.0,29.62,SE,136,0.0,1.0,50,0.00,,,0.14,weatherlink.com 1.10,2013-07-07 03:47:00,
2013-07-06 22:02:00,70.5,52.0,29.62,SSW,204,0.0,1.0,52,0.00,,,0.14,weatherlink.com 1.10,2013-07-07 04:02:00,
2013-07-06 22:17:00,69.5,51.0,29.62,SSE,148,0.0,0.0,53,0.00,,,0.14,weatherlink.com 1.10,2013-07-07 04:17:00,
2013-07-06 22:32:00,69.7,52.0,29.62,SW,233,0.0,1.0,53,0.00,,,0.14,weatherlink.com 1.10,2013-07-07 04:32:00,
2013-07-06 22:47:00,68.7,52.0,29.63,SW,233,0.0,0.0,55,0.00,,,0.14,weatherlink.com 1.10,2013-07-07 04:47:00,
2013-07-06 23:02:00,67.2,52.0,29.63,SW,234,0.0,0.0,59,0.00,,,0.14,weatherlink.com 1.10,2013-07-07 05:02:00,
2013-07-06 23:17:00,67.0,53.0,29.63,SSW,203,0.0,1.0,61,0.00,,,0.14,weatherlink.com 1.10,2013-07-07 05:17:00,
2013-07-06 23:33:00,66.3,52.0,29.62,SSW,203,0.0,1.0,61,0.00,,,0.14,weatherlink.com 1.10,2013-07-07 05:33:00,
2013-07-06 23:47:00,65.9,52.0,29.62,SSW,203,0.0,0.0,61,0.00,,,0.14,weatherlink.com 1.10,2013-07-07 05:47:00,